sensor_id;sensor_type;location;lat;lon;timestamp;pressure;altitude;pressure_sealevel;temperature;humidity
31299;BME280;17927;52.350;13.402;2023-05-08T00:01:42;102246.97;;;13.09;44.94
31299;BME280;17927;52.350;13.402;2023-05-08T00:04:08;102248.09;;;13.06;44.91
31299;BME280;17927;52.350;13.402;2023-05-08T00:06:33;102248.34;;;13.03;45.15
31299;BME280;17927;52.350;13.402;2023-05-08T00:08:59;102247.59;;;13.01;45.17
31299;BME280;17927;52.350;13.402;2023-05-08T00:11:24;102247.72;;;13.00;45.00
31299;BME280;17927;52.350;13.402;2023-05-08T00:13:49;102242.53;;;12.97;44.99
31299;BME280;17927;52.350;13.402;2023-05-08T00:16:14;102242.69;;;12.95;45.21
31299;BME280;17927;52.350;13.402;2023-05-08T00:18:40;102243.06;;;12.90;45.31
31299;BME280;17927;52.350;13.402;2023-05-08T00:21:05;102245.88;;;12.89;45.21
31299;BME280;17927;52.350;13.402;2023-05-08T00:23:31;102260.53;;;12.86;45.15
31299;BME280;17927;52.350;13.402;2023-05-08T00:25:57;102254.25;;;12.86;45.20
31299;BME280;17927;52.350;13.402;2023-05-08T00:28:22;102260.91;;;12.82;45.41
31299;BME280;17927;52.350;13.402;2023-05-08T00:30:47;102257.56;;;12.78;45.29
31299;BME280;17927;52.350;13.402;2023-05-08T00:33:13;102264.22;;;12.74;45.35
31299;BME280;17927;52.350;13.402;2023-05-08T00:35:38;102265.31;;;12.71;45.51
31299;BME280;17927;52.350;13.402;2023-05-08T00:38:06;102266.44;;;12.69;45.47
31299;BME280;17927;52.350;13.402;2023-05-08T00:40:31;102266.66;;;12.66;45.49
31299;BME280;17927;52.350;13.402;2023-05-08T00:42:57;102267.78;;;12.63;45.62
31299;BME280;17927;52.350;13.402;2023-05-08T00:45:22;102258.03;;;12.60;45.50
31299;BME280;17927;52.350;13.402;2023-05-08T00:47:48;102268.25;;;12.57;45.61
31299;BME280;17927;52.350;13.402;2023-05-08T00:50:14;102268.47;;;12.54;45.96
31299;BME280;17927;52.350;13.402;2023-05-08T00:52:40;102268.72;;;12.51;45.86
31299;BME280;17927;52.350;13.402;2023-05-08T00:55:05;102266.34;;;12.46;45.78
31299;BME280;17927;52.350;13.402;2023-05-08T00:57:32;102270.31;;;12.42;46.27
31299;BME280;17927;52.350;13.402;2023-05-08T01:00:00;102274.09;;;12.39;45.98
31299;BME280;17927;52.350;13.402;2023-05-08T01:02:27;102279.78;;;12.36;46.22
31299;BME280;17927;52.350;13.402;2023-05-08T01:04:55;102272.72;;;12.33;46.21
31299;BME280;17927;52.350;13.402;2023-05-08T01:07:21;102267.53;;;12.30;46.29
31299;BME280;17927;52.350;13.402;2023-05-08T01:09:46;102273.97;;;12.29;46.09
31299;BME280;17927;52.350;13.402;2023-05-08T01:12:16;102275.03;;;12.27;46.33
31299;BME280;17927;52.350;13.402;2023-05-08T01:15:01;102279.72;;;12.25;46.39
31299;BME280;17927;52.350;13.402;2023-05-08T01:20:38;102277.59;;;12.17;46.44
31299;BME280;17927;52.350;13.402;2023-05-08T01:23:34;102281.53;;;12.13;46.36
31299;BME280;17927;52.350;13.402;2023-05-08T01:26:48;102278.91;;;12.11;46.54
31299;BME280;17927;52.350;13.402;2023-05-08T01:29:42;102281.00;;;12.08;46.64
31299;BME280;17927;52.350;13.402;2023-05-08T01:32:22;102284.81;;;12.05;46.32
31299;BME280;17927;52.350;13.402;2023-05-08T01:37:28;102283.31;;;12.01;46.30
31299;BME280;17927;52.350;13.402;2023-05-08T01:39:56;102289.69;;;12.00;46.44
31299;BME280;17927;52.350;13.402;2023-05-08T01:42:32;102281.78;;;11.97;46.69
31299;BME280;17927;52.350;13.402;2023-05-08T01:45:04;102282.75;;;11.96;46.71
31299;BME280;17927;52.350;13.402;2023-05-08T01:47:32;102282.00;;;11.94;46.82
31299;BME280;17927;52.350;13.402;2023-05-08T01:50:10;102286.66;;;11.92;46.95
31299;BME280;17927;52.350;13.402;2023-05-08T01:52:57;102285.03;;;11.89;46.80
31299;BME280;17927;52.350;13.402;2023-05-08T01:55:30;102277.16;;;11.86;46.71
31299;BME280;17927;52.350;13.402;2023-05-08T01:57:58;102280.09;;;11.83;46.88
31299;BME280;17927;52.350;13.402;2023-05-08T02:00:25;102283.03;;;11.80;46.82
31299;BME280;17927;52.350;13.402;2023-05-08T02:02:54;102276.97;;;11.76;47.05
31299;BME280;17927;52.350;13.402;2023-05-08T02:05:20;102281.66;;;11.74;47.04
31299;BME280;17927;52.350;13.402;2023-05-08T02:07:48;102272.78;;;11.72;47.16
31299;BME280;17927;52.350;13.402;2023-05-08T02:10:13;102280.13;;;11.70;47.03
31299;BME280;17927;52.350;13.402;2023-05-08T02:12:42;102283.06;;;11.67;47.15
31299;BME280;17927;52.350;13.402;2023-05-08T02:15:08;102272.47;;;11.64;46.99
31299;BME280;17927;52.350;13.402;2023-05-08T02:17:38;102278.09;;;11.61;47.02
31299;BME280;17927;52.350;13.402;2023-05-08T02:20:05;102277.38;;;11.58;47.12
31299;BME280;17927;52.350;13.402;2023-05-08T02:22:31;102283.75;;;11.57;47.31
31299;BME280;17927;52.350;13.402;2023-05-08T02:24:57;102273.91;;;11.56;47.19
31299;BME280;17927;52.350;13.402;2023-05-08T02:27:27;102274.13;;;11.53;47.24
31299;BME280;17927;52.350;13.402;2023-05-08T02:29:54;102277.03;;;11.50;47.43
31299;BME280;17927;52.350;13.402;2023-05-08T02:32:20;102274.56;;;11.47;47.31
31299;BME280;17927;52.350;13.402;2023-05-08T02:34:49;102278.47;;;11.43;47.67
31299;BME280;17927;52.350;13.402;2023-05-08T02:37:17;102278.56;;;11.41;47.65
31299;BME280;17927;52.350;13.402;2023-05-08T02:39:44;102277.81;;;11.39;47.31
31299;BME280;17927;52.350;13.402;2023-05-08T02:42:10;102274.34;;;11.37;47.57
31299;BME280;17927;52.350;13.402;2023-05-08T02:44:36;102272.75;;;11.35;47.42
31299;BME280;17927;52.350;13.402;2023-05-08T02:49:52;102277.63;;;11.30;47.76
31299;BME280;17927;52.350;13.402;2023-05-08T02:57:48;102274.50;;;11.23;47.70
31299;BME280;17927;52.350;13.402;2023-05-08T03:00:21;102280.03;;;11.21;47.52
31299;BME280;17927;52.350;13.402;2023-05-08T03:02:58;102279.25;;;11.19;47.95
31299;BME280;17927;52.350;13.402;2023-05-08T03:05:48;102284.78;;;11.18;48.07
31299;BME280;17927;52.350;13.402;2023-05-08T03:08:18;102284.13;;;11.14;48.00
31299;BME280;17927;52.350;13.402;2023-05-08T03:10:47;102285.13;;;11.13;47.99
31299;BME280;17927;52.350;13.402;2023-05-08T03:13:15;102279.06;;;11.09;47.96
31299;BME280;17927;52.350;13.402;2023-05-08T03:15:49;102281.75;;;11.09;48.03
31299;BME280;17927;52.350;13.402;2023-05-08T03:18:18;102280.03;;;11.08;48.04
31299;BME280;17927;52.350;13.402;2023-05-08T03:20:47;102282.84;;;11.07;47.84
31299;BME280;17927;52.350;13.402;2023-05-08T03:23:15;102279.25;;;11.06;47.97
31299;BME280;17927;52.350;13.402;2023-05-08T03:25:42;102281.25;;;11.04;48.13
31299;BME280;17927;52.350;13.402;2023-05-08T03:28:09;102282.31;;;11.02;47.89
31299;BME280;17927;52.350;13.402;2023-05-08T03:30:36;102281.53;;;11.00;48.17
31299;BME280;17927;52.350;13.402;2023-05-08T03:33:03;102285.34;;;10.97;48.35
31299;BME280;17927;52.350;13.402;2023-05-08T03:35:30;102285.47;;;10.95;48.00
31299;BME280;17927;52.350;13.402;2023-05-08T03:37:57;102291.84;;;10.94;48.12
31299;BME280;17927;52.350;13.402;2023-05-08T03:40:23;102285.66;;;10.92;48.40
31299;BME280;17927;52.350;13.402;2023-05-08T03:42:48;102283.94;;;10.91;48.29
31299;BME280;17927;52.350;13.402;2023-05-08T03:45:15;102294.75;;;10.91;48.29
31299;BME280;17927;52.350;13.402;2023-05-08T03:47:42;102293.88;;;10.91;48.12
31299;BME280;17927;52.350;13.402;2023-05-08T03:50:07;102290.19;;;10.92;48.39
31299;BME280;17927;52.350;13.402;2023-05-08T03:52:33;102290.09;;;10.93;48.12
31299;BME280;17927;52.350;13.402;2023-05-08T03:54:58;102290.09;;;10.93;48.56
31299;BME280;17927;52.350;13.402;2023-05-08T03:57:26;102297.13;;;10.96;48.55
31299;BME280;17927;52.350;13.402;2023-05-08T04:00:34;102287.19;;;10.96;48.63
31299;BME280;17927;52.350;13.402;2023-05-08T04:06:00;102280.81;;;10.98;48.56
31299;BME280;17927;52.350;13.402;2023-05-08T04:08:28;102292.25;;;11.01;48.41
31299;BME280;17927;52.350;13.402;2023-05-08T04:11:06;102291.94;;;11.06;48.49
31299;BME280;17927;52.350;13.402;2023-05-08T04:13:36;102292.69;;;11.08;48.84
31299;BME280;17927;52.350;13.402;2023-05-08T04:16:06;102292.38;;;11.12;48.74
31299;BME280;17927;52.350;13.402;2023-05-08T04:18:35;102297.56;;;11.16;48.93
31299;BME280;17927;52.350;13.402;2023-05-08T04:21:02;102292.78;;;11.19;48.87
31299;BME280;17927;52.350;13.402;2023-05-08T04:23:32;102305.13;;;11.23;48.72
31299;BME280;17927;52.350;13.402;2023-05-08T04:25:59;102299.50;;;11.26;49.03
31299;BME280;17927;52.350;13.402;2023-05-08T04:28:27;102301.00;;;11.31;49.08
31299;BME280;17927;52.350;13.402;2023-05-08T04:30:52;102298.84;;;11.36;48.92
31299;BME280;17927;52.350;13.402;2023-05-08T04:33:19;102310.97;;;11.43;49.13
31299;BME280;17927;52.350;13.402;2023-05-08T04:35:44;102310.41;;;11.51;48.96
31299;BME280;17927;52.350;13.402;2023-05-08T04:38:12;102317.97;;;11.58;48.93
31299;BME280;17927;52.350;13.402;2023-05-08T04:40:38;102316.53;;;11.66;48.94
31299;BME280;17927;52.350;13.402;2023-05-08T04:43:03;102321.50;;;11.72;48.97
31299;BME280;17927;52.350;13.402;2023-05-08T04:45:28;102320.06;;;11.79;49.09
31299;BME280;17927;52.350;13.402;2023-05-08T04:47:53;102321.34;;;11.86;49.02
31299;BME280;17927;52.350;13.402;2023-05-08T04:50:19;102322.50;;;11.95;48.96
31299;BME280;17927;52.350;13.402;2023-05-08T04:52:44;102330.94;;;12.03;48.98
31299;BME280;17927;52.350;13.402;2023-05-08T04:55:09;102334.94;;;12.11;48.88
31299;BME280;17927;52.350;13.402;2023-05-08T04:57:35;102340.66;;;12.19;48.74
31299;BME280;17927;52.350;13.402;2023-05-08T05:00:00;102341.94;;;12.26;48.81
31299;BME280;17927;52.350;13.402;2023-05-08T05:02:25;102344.06;;;12.34;48.76
31299;BME280;17927;52.350;13.402;2023-05-08T05:04:51;102342.59;;;12.41;48.71
31299;BME280;17927;52.350;13.402;2023-05-08T05:07:16;102338.47;;;12.48;48.81
31299;BME280;17927;52.350;13.402;2023-05-08T05:09:41;102347.75;;;12.57;48.66
31299;BME280;17927;52.350;13.402;2023-05-08T05:12:06;102347.91;;;12.67;48.56
31299;BME280;17927;52.350;13.402;2023-05-08T05:14:32;102352.59;;;12.76;48.33
31299;BME280;17927;52.350;13.402;2023-05-08T05:16:57;102356.44;;;12.85;48.37
31299;BME280;17927;52.350;13.402;2023-05-08T05:19:22;102357.59;;;12.94;48.21
31299;BME280;17927;52.350;13.402;2023-05-08T05:21:48;102363.25;;;13.02;48.12
31299;BME280;17927;52.350;13.402;2023-05-08T05:24:13;102363.53;;;13.10;47.95
31299;BME280;17927;52.350;13.402;2023-05-08T05:26:38;102361.31;;;13.16;47.84
31299;BME280;17927;52.350;13.402;2023-05-08T05:29:04;102368.00;;;13.23;47.92
31299;BME280;17927;52.350;13.402;2023-05-08T05:31:29;102371.84;;;13.32;48.11
31299;BME280;17927;52.350;13.402;2023-05-08T05:33:54;102372.09;;;13.40;47.55
31299;BME280;17927;52.350;13.402;2023-05-08T05:36:20;102364.09;;;13.50;47.42
31299;BME280;17927;52.350;13.402;2023-05-08T05:38:45;102364.59;;;13.55;47.65
31299;BME280;17927;52.350;13.402;2023-05-08T05:41:10;102366.09;;;13.59;47.50
31299;BME280;17927;52.350;13.402;2023-05-08T05:43:36;102358.41;;;13.64;47.18
31299;BME280;17927;52.350;13.402;2023-05-08T05:46:05;102354.22;;;13.72;47.27
31299;BME280;17927;52.350;13.402;2023-05-08T05:48:30;102367.19;;;13.79;47.01
31299;BME280;17927;52.350;13.402;2023-05-08T05:50:56;102365.69;;;13.86;46.97
31299;BME280;17927;52.350;13.402;2023-05-08T05:53:22;102373.19;;;13.94;46.67
31299;BME280;17927;52.350;13.402;2023-05-08T05:55:47;102367.28;;;14.00;46.96
31299;BME280;17927;52.350;13.402;2023-05-08T05:58:12;102372.22;;;14.07;46.81
31299;BME280;17927;52.350;13.402;2023-05-08T06:00:37;102372.31;;;14.16;46.90
31299;BME280;17927;52.350;13.402;2023-05-08T06:03:03;102385.28;;;14.24;46.51
31299;BME280;17927;52.350;13.402;2023-05-08T06:05:28;102367.59;;;14.30;46.29
31299;BME280;17927;52.350;13.402;2023-05-08T06:07:54;102366.19;;;14.36;46.47
31299;BME280;17927;52.350;13.402;2023-05-08T06:10:19;102368.28;;;14.43;46.41
31299;BME280;17927;52.350;13.402;2023-05-08T06:12:44;102372.09;;;14.52;46.29
31299;BME280;17927;52.350;13.402;2023-05-08T06:15:10;102366.59;;;14.64;46.16
31299;BME280;17927;52.350;13.402;2023-05-08T06:17:35;102365.97;;;14.92;46.15
31299;BME280;17927;52.350;13.402;2023-05-08T06:20:01;102366.66;;;15.37;46.41
31299;BME280;17927;52.350;13.402;2023-05-08T06:22:26;102375.44;;;15.81;47.09
31299;BME280;17927;52.350;13.402;2023-05-08T06:24:53;102386.75;;;16.08;46.20
31299;BME280;17927;52.350;13.402;2023-05-08T06:27:19;102369.41;;;16.19;45.58
31299;BME280;17927;52.350;13.402;2023-05-08T06:29:48;102370.00;;;16.22;45.10
31299;BME280;17927;52.350;13.402;2023-05-08T06:32:16;102386.22;;;16.24;44.56
31299;BME280;17927;52.350;13.402;2023-05-08T06:34:41;102370.72;;;16.24;44.38
31299;BME280;17927;52.350;13.402;2023-05-08T06:37:06;102376.06;;;16.26;43.92
31299;BME280;17927;52.350;13.402;2023-05-08T06:39:32;102378.03;;;16.24;43.53
31299;BME280;17927;52.350;13.402;2023-05-08T06:41:57;102375.59;;;16.21;43.22
31299;BME280;17927;52.350;13.402;2023-05-08T06:44:22;102375.75;;;16.19;43.18
31299;BME280;17927;52.350;13.402;2023-05-08T06:46:47;102378.59;;;16.18;42.87
31299;BME280;17927;52.350;13.402;2023-05-08T06:49:13;102376.88;;;16.17;42.66
31299;BME280;17927;52.350;13.402;2023-05-08T06:51:38;102389.38;;;16.19;43.16
31299;BME280;17927;52.350;13.402;2023-05-08T06:54:03;102382.78;;;16.22;42.77
31299;BME280;17927;52.350;13.402;2023-05-08T06:56:32;102381.91;;;16.21;42.46
31299;BME280;17927;52.350;13.402;2023-05-08T06:58:58;102381.91;;;16.21;42.63
31299;BME280;17927;52.350;13.402;2023-05-08T07:01:23;102389.22;;;16.21;42.15
31299;BME280;17927;52.350;13.402;2023-05-08T07:03:48;102381.78;;;16.23;41.94
31299;BME280;17927;52.350;13.402;2023-05-08T07:06:13;102376.16;;;16.24;42.09
31299;BME280;17927;52.350;13.402;2023-05-08T07:08:39;102386.81;;;16.27;41.87
31299;BME280;17927;52.350;13.402;2023-05-08T07:11:04;102385.53;;;16.32;41.46
31299;BME280;17927;52.350;13.402;2023-05-08T07:13:30;102389.66;;;16.36;41.24
31299;BME280;17927;52.350;13.402;2023-05-08T07:15:55;102374.91;;;16.38;41.46
31299;BME280;17927;52.350;13.402;2023-05-08T07:18:21;102371.75;;;16.43;41.38
31299;BME280;17927;52.350;13.402;2023-05-08T07:20:46;102384.66;;;16.51;41.36
31299;BME280;17927;52.350;13.402;2023-05-08T07:23:12;102378.50;;;16.58;41.13
31299;BME280;17927;52.350;13.402;2023-05-08T07:25:37;102380.94;;;16.62;41.20
31299;BME280;17927;52.350;13.402;2023-05-08T07:28:02;102385.97;;;16.66;41.03
31299;BME280;17927;52.350;13.402;2023-05-08T07:30:28;102388.13;;;16.72;41.02
31299;BME280;17927;52.350;13.402;2023-05-08T07:32:53;102387.13;;;16.73;40.95
31299;BME280;17927;52.350;13.402;2023-05-08T07:35:18;102385.81;;;16.78;40.96
31299;BME280;17927;52.350;13.402;2023-05-08T07:37:44;102380.78;;;16.83;40.75
31299;BME280;17927;52.350;13.402;2023-05-08T07:40:10;102380.22;;;16.89;40.52
31299;BME280;17927;52.350;13.402;2023-05-08T07:42:39;102386.38;;;16.91;40.35
31299;BME280;17927;52.350;13.402;2023-05-08T07:45:06;102383.28;;;16.96;40.26
31299;BME280;17927;52.350;13.402;2023-05-08T07:47:31;102378.09;;;17.02;40.23
31299;BME280;17927;52.350;13.402;2023-05-08T07:49:57;102381.09;;;17.09;39.97
31299;BME280;17927;52.350;13.402;2023-05-08T07:52:22;102384.38;;;17.13;39.99
31299;BME280;17927;52.350;13.402;2023-05-08T07:54:47;102381.06;;;17.19;39.30
31299;BME280;17927;52.350;13.402;2023-05-08T07:57:12;102374.28;;;17.23;39.14
31299;BME280;17927;52.350;13.402;2023-05-08T07:59:38;102380.88;;;17.30;39.13
31299;BME280;17927;52.350;13.402;2023-05-08T08:02:03;102377.00;;;17.33;38.65
31299;BME280;17927;52.350;13.402;2023-05-08T08:04:28;102376.41;;;17.39;38.50
31299;BME280;17927;52.350;13.402;2023-05-08T08:06:53;102380.56;;;17.43;38.42
31299;BME280;17927;52.350;13.402;2023-05-08T08:09:19;102383.84;;;17.47;38.20
31299;BME280;17927;52.350;13.402;2023-05-08T08:11:44;102377.38;;;17.48;38.18
31299;BME280;17927;52.350;13.402;2023-05-08T08:14:10;102378.94;;;17.50;38.10
31299;BME280;17927;52.350;13.402;2023-05-08T08:16:35;102375.94;;;17.54;38.02
31299;BME280;17927;52.350;13.402;2023-05-08T08:19:00;102394.59;;;17.58;37.83
31299;BME280;17927;52.350;13.402;2023-05-08T08:21:26;102378.03;;;17.60;38.03
31299;BME280;17927;52.350;13.402;2023-05-08T08:23:51;102372.28;;;17.63;37.93
31299;BME280;17927;52.350;13.402;2023-05-08T08:26:16;102372.84;;;17.67;37.96
31299;BME280;17927;52.350;13.402;2023-05-08T08:28:41;102377.00;;;17.71;37.78
31299;BME280;17927;52.350;13.402;2023-05-08T08:31:07;102370.38;;;17.73;37.63
31299;BME280;17927;52.350;13.402;2023-05-08T08:33:32;102380.13;;;17.76;37.59
31299;BME280;17927;52.350;13.402;2023-05-08T08:35:58;102363.44;;;17.79;37.45
31299;BME280;17927;52.350;13.402;2023-05-08T08:38:23;102362.97;;;17.84;37.33
31299;BME280;17927;52.350;13.402;2023-05-08T08:40:48;102373.31;;;17.90;37.89
31299;BME280;17927;52.350;13.402;2023-05-08T08:43:14;102361.75;;;17.96;37.72
31299;BME280;17927;52.350;13.402;2023-05-08T08:45:39;102368.69;;;18.00;37.42
31299;BME280;17927;52.350;13.402;2023-05-08T08:48:09;102352.53;;;18.07;37.09
31299;BME280;17927;52.350;13.402;2023-05-08T08:50:35;102357.69;;;18.10;37.16
31299;BME280;17927;52.350;13.402;2023-05-08T08:53:14;102367.28;;;18.14;36.51
31299;BME280;17927;52.350;13.402;2023-05-08T08:55:45;102363.41;;;18.17;36.80
31299;BME280;17927;52.350;13.402;2023-05-08T08:58:21;102351.28;;;18.19;36.86
31299;BME280;17927;52.350;13.402;2023-05-08T09:00:48;102365.34;;;18.24;36.79
31299;BME280;17927;52.350;13.402;2023-05-08T09:03:14;102350.38;;;18.29;36.96
31299;BME280;17927;52.350;13.402;2023-05-08T09:05:40;102361.53;;;18.35;37.12
31299;BME280;17927;52.350;13.402;2023-05-08T09:08:05;102357.31;;;18.41;36.75
31299;BME280;17927;52.350;13.402;2023-05-08T09:10:31;102361.59;;;18.44;36.77
31299;BME280;17927;52.350;13.402;2023-05-08T09:12:56;102349.34;;;18.48;36.11
31299;BME280;17927;52.350;13.402;2023-05-08T09:15:22;102349.16;;;18.49;36.10
31299;BME280;17927;52.350;13.402;2023-05-08T09:17:47;102352.47;;;18.53;36.28
31299;BME280;17927;52.350;13.402;2023-05-08T09:20:13;102339.34;;;18.56;36.38
31299;BME280;17927;52.350;13.402;2023-05-08T09:22:41;102346.91;;;18.63;36.39
31299;BME280;17927;52.350;13.402;2023-05-08T09:25:07;102348.31;;;18.67;36.39
31299;BME280;17927;52.350;13.402;2023-05-08T09:27:32;102348.69;;;18.72;35.86
31299;BME280;17927;52.350;13.402;2023-05-08T09:30:04;102344.63;;;18.76;35.18
31299;BME280;17927;52.350;13.402;2023-05-08T09:32:30;102339.84;;;18.78;35.22
31299;BME280;17927;52.350;13.402;2023-05-08T09:34:56;102354.22;;;18.80;35.11
31299;BME280;17927;52.350;13.402;2023-05-08T09:37:22;102339.38;;;18.83;34.91
31299;BME280;17927;52.350;13.402;2023-05-08T09:39:47;102352.91;;;18.84;34.98
31299;BME280;17927;52.350;13.402;2023-05-08T09:42:13;102341.78;;;18.86;34.69
31299;BME280;17927;52.350;13.402;2023-05-08T09:44:53;102342.00;;;18.93;34.37
31299;BME280;17927;52.350;13.402;2023-05-08T09:47:22;102336.53;;;18.93;34.30
31299;BME280;17927;52.350;13.402;2023-05-08T09:50:09;102339.69;;;18.98;34.73
31299;BME280;17927;52.350;13.402;2023-05-08T09:52:36;102347.41;;;19.02;34.86
31299;BME280;17927;52.350;13.402;2023-05-08T09:55:07;102344.22;;;19.07;34.43
31299;BME280;17927;52.350;13.402;2023-05-08T09:57:39;102331.03;;;19.11;34.98
31299;BME280;17927;52.350;13.402;2023-05-08T10:00:08;102344.06;;;19.17;34.81
31299;BME280;17927;52.350;13.402;2023-05-08T10:02:39;102338.81;;;19.24;34.69
31299;BME280;17927;52.350;13.402;2023-05-08T10:07:49;102324.66;;;19.28;34.83
31299;BME280;17927;52.350;13.402;2023-05-08T10:10:24;102357.88;;;19.33;34.12
31299;BME280;17927;52.350;13.402;2023-05-08T10:12:51;102327.72;;;19.33;34.31
31299;BME280;17927;52.350;13.402;2023-05-08T10:15:17;102347.28;;;19.39;33.86
31299;BME280;17927;52.350;13.402;2023-05-08T10:18:06;102332.56;;;19.40;33.65
31299;BME280;17927;52.350;13.402;2023-05-08T10:20:32;102328.63;;;19.42;33.94
31299;BME280;17927;52.350;13.402;2023-05-08T10:22:58;102321.63;;;19.48;34.13
31299;BME280;17927;52.350;13.402;2023-05-08T10:25:25;102321.84;;;19.55;34.25
31299;BME280;17927;52.350;13.402;2023-05-08T10:27:58;102335.91;;;19.60;34.11
31299;BME280;17927;52.350;13.402;2023-05-08T10:30:26;102320.88;;;19.64;33.76
31299;BME280;17927;52.350;13.402;2023-05-08T10:32:52;102318.50;;;19.69;33.44
31299;BME280;17927;52.350;13.402;2023-05-08T10:35:22;102310.09;;;19.71;33.58
31299;BME280;17927;52.350;13.402;2023-05-08T10:37:48;102312.19;;;19.77;33.85
31299;BME280;17927;52.350;13.402;2023-05-08T10:40:14;102307.91;;;19.83;33.62
31299;BME280;17927;52.350;13.402;2023-05-08T10:42:45;102309.31;;;19.87;32.69
31299;BME280;17927;52.350;13.402;2023-05-08T10:45:11;102306.41;;;19.88;32.71
31299;BME280;17927;52.350;13.402;2023-05-08T10:48:01;102301.25;;;19.93;32.71
31299;BME280;17927;52.350;13.402;2023-05-08T10:50:35;102298.38;;;19.95;33.14
31299;BME280;17927;52.350;13.402;2023-05-08T10:53:21;102289.13;;;20.04;33.43
31299;BME280;17927;52.350;13.402;2023-05-08T10:55:49;102297.53;;;20.11;33.24
31299;BME280;17927;52.350;13.402;2023-05-08T10:58:32;102294.97;;;20.18;33.09
31299;BME280;17927;52.350;13.402;2023-05-08T11:03:28;102295.50;;;20.30;33.10
31299;BME280;17927;52.350;13.402;2023-05-08T11:05:55;102282.13;;;20.35;33.21
31299;BME280;17927;52.350;13.402;2023-05-08T11:08:24;102293.97;;;20.44;32.61
31299;BME280;17927;52.350;13.402;2023-05-08T11:13:32;102288.81;;;20.57;32.40
31299;BME280;17927;52.350;13.402;2023-05-08T11:15:58;102287.09;;;20.64;32.63
31299;BME280;17927;52.350;13.402;2023-05-08T11:18:24;102286.41;;;20.71;31.98
31299;BME280;17927;52.350;13.402;2023-05-08T11:21:01;102286.78;;;20.76;31.85
31299;BME280;17927;52.350;13.402;2023-05-08T11:23:33;102286.25;;;20.80;32.63
31299;BME280;17927;52.350;13.402;2023-05-08T11:26:11;102277.16;;;20.88;31.96
31299;BME280;17927;52.350;13.402;2023-05-08T11:28:56;102277.97;;;20.97;32.15
31299;BME280;17927;52.350;13.402;2023-05-08T11:31:21;102281.91;;;21.03;31.78
31299;BME280;17927;52.350;13.402;2023-05-08T11:33:47;102284.47;;;21.12;31.69
31299;BME280;17927;52.350;13.402;2023-05-08T11:36:14;102276.88;;;21.23;31.27
31299;BME280;17927;52.350;13.402;2023-05-08T11:38:41;102273.41;;;21.29;31.17
31299;BME280;17927;52.350;13.402;2023-05-08T11:41:19;102259.81;;;21.36;31.12
31299;BME280;17927;52.350;13.402;2023-05-08T11:46:52;102266.63;;;21.48;31.20
31299;BME280;17927;52.350;13.402;2023-05-08T11:49:22;102263.19;;;21.54;31.57
31299;BME280;17927;52.350;13.402;2023-05-08T11:51:49;102249.59;;;21.61;31.90
31299;BME280;17927;52.350;13.402;2023-05-08T11:54:18;102253.38;;;21.52;32.92
31299;BME280;17927;52.350;13.402;2023-05-08T11:56:45;102259.00;;;21.67;32.24
31299;BME280;17927;52.350;13.402;2023-05-08T11:59:10;102257.75;;;21.78;31.32
31299;BME280;17927;52.350;13.402;2023-05-08T12:01:36;102253.22;;;21.85;31.91
31299;BME280;17927;52.350;13.402;2023-05-08T12:04:06;102257.44;;;21.96;31.32
31299;BME280;17927;52.350;13.402;2023-05-08T12:06:32;102248.28;;;22.03;31.81
31299;BME280;17927;52.350;13.402;2023-05-08T12:08:59;102251.47;;;22.15;31.39
31299;BME280;17927;52.350;13.402;2023-05-08T12:11:24;102248.28;;;22.27;31.42
31299;BME280;17927;52.350;13.402;2023-05-08T12:13:51;102252.28;;;22.39;31.83
31299;BME280;17927;52.350;13.402;2023-05-08T12:16:16;102244.94;;;22.55;31.68
31299;BME280;17927;52.350;13.402;2023-05-08T12:18:41;102253.72;;;22.73;31.74
31299;BME280;17927;52.350;13.402;2023-05-08T12:21:09;102249.84;;;22.98;32.23
31299;BME280;17927;52.350;13.402;2023-05-08T12:23:35;102242.66;;;23.26;32.59
31299;BME280;17927;52.350;13.402;2023-05-08T12:26:00;102245.81;;;23.60;32.31
31299;BME280;17927;52.350;13.402;2023-05-08T12:28:26;102249.13;;;23.92;31.56
31299;BME280;17927;52.350;13.402;2023-05-08T12:30:52;102236.53;;;24.26;31.57
31299;BME280;17927;52.350;13.402;2023-05-08T12:33:18;102239.38;;;24.61;30.89
31299;BME280;17927;52.350;13.402;2023-05-08T12:35:44;102234.56;;;24.99;30.88
31299;BME280;17927;52.350;13.402;2023-05-08T12:38:09;102234.38;;;25.42;30.33
31299;BME280;17927;52.350;13.402;2023-05-08T12:40:46;102225.75;;;25.86;29.10
31299;BME280;17927;52.350;13.402;2023-05-08T12:43:14;102217.94;;;26.29;29.72
31299;BME280;17927;52.350;13.402;2023-05-08T12:45:41;102239.22;;;26.76;28.98
31299;BME280;17927;52.350;13.402;2023-05-08T12:48:12;102228.44;;;27.20;27.78
31299;BME280;17927;52.350;13.402;2023-05-08T12:50:39;102233.59;;;27.62;27.82
31299;BME280;17927;52.350;13.402;2023-05-08T12:53:10;102227.34;;;28.05;27.23
31299;BME280;17927;52.350;13.402;2023-05-08T12:55:37;102217.84;;;28.45;26.88
31299;BME280;17927;52.350;13.402;2023-05-08T12:58:04;102226.44;;;28.88;26.26
31299;BME280;17927;52.350;13.402;2023-05-08T13:00:38;102220.22;;;29.23;24.65
31299;BME280;17927;52.350;13.402;2023-05-08T13:03:04;102216.66;;;29.53;24.67
31299;BME280;17927;52.350;13.402;2023-05-08T13:05:30;102211.69;;;29.85;24.59
31299;BME280;17927;52.350;13.402;2023-05-08T13:08:03;102209.84;;;30.21;23.99
31299;BME280;17927;52.350;13.402;2023-05-08T13:11:05;102204.53;;;30.67;23.55
31299;BME280;17927;52.350;13.402;2023-05-08T13:13:32;102210.53;;;31.00;23.83